Tiempo atmosférico en la estación meteorológica de Agüimes, Las Palmas (306 m.)



Fecha
DESCASC
Temp. máxima en grados centígrados (hora)
DESCASC
Temp. mínima en grados centígrados (hora)
DESCASC
Temp. media en grados centígrados
DESCASC
Racha de viento máxima en m/sg (hora)
DESCASC
Velocidad máxima media en intervalos de 10 minutos(hora)
DESCASC
Precipitaciones diarias en mm
DESCASC
Precipitaciones de 00:00 a 06:00 en mm
DESCASC
Precipitaciones de 06:00 a 12:00 en mm
DESCASC
Precipitaciones de 12:00 a 18:00 en mm
DESCASC
Precipitaciones de 18:00 a 24:00 en mm
DESCASC
13-10-2019 24.6 (12:50) 17.6 (06:20) 21.1 6.67 (00:30) 4.17 (00:30) 0 0 0 0 0
12-10-2019 25.6 (13:10) 18.1 (06:10) 21.9 11.11 (13:10) 6.94 (12:30) 0 0 0 0 0
11-10-2019 26.3 (13:50) 16.9 (07:30) 21.6 11.39 (16:10) 7.5 (16:10) 0 0 0 0 0
10-10-2019 25.8 (14:40) 19.1 (00:00) 22.4 12.5 (10:40) 8.33 (11:30) 0 0 0 0 0
09-10-2019 26.4 (14:10) 17 (00:00) 21.7 14.72 (12:20) 10.56 (12:00) 0 0 0 0 0
08-10-2019 27.8 (16:40) 17.7 (00:00) 22.8 14.72 (10:40) 10.83 (10:30) 0 0 0 0 0
07-10-2019 27.9 (15:30) 18.4 (00:00) 23.1 13.89 (03:10) 9.72 (02:40) 0 0 0 0 0
06-10-2019 26 (15:10) 19.7 (00:00) 22.9 18.61 (01:30) 12.22 (01:30) 0 0 0 0 0
05-10-2019 29.4 (13:40) 20.9 (00:00) 25.1 20.83 (10:10) 14.44 (09:40) 0 0 0 0 0
04-10-2019 33 (15:30) 27 (00:00) 30 18.89 (06:30) 11.67 (06:50) 0 0 0 0 0
03-10-2019 32.1 (13:10) 25.1 (00:00) 28.6 16.39 (23:20) 10.28 (01:50) 0 0 0 0 0
02-10-2019 36.5 (12:50) 25.7 (00:00) 31.1 14.72 (04:10) 10.56 (04:10) 0 0 0 0 0
01-10-2019 -- (--) -- (--) -- 16.39 (03:00) 11.39 (03:00) 0 0 0 0 0
30-09-2019 -- (--) -- (--) -- 14.17 (23:00) 10.56 (06:20) 0 0 0 0 0
29-09-2019 31.6 (16:30) 19.2 (00:00) 25.4 11.39 (05:50) 8.61 (23:40) 0 0 0 0 0
28-09-2019 26.2 (14:40) 19.2 (00:00) 22.7 15 (10:10) 10.56 (10:10) 0 0 0 0 0
27-09-2019 26.9 (13:50) 18.6 (00:00) 22.8 15.28 (18:30) 10.83 (18:40) 0 0 0 0 0
26-09-2019 27.1 (14:10) 19.7 (00:00) 23.4 17.5 (12:10) 11.39 (12:00) 0 0 0 0 0
25-09-2019 28.6 (12:00) 17.5 (00:00) 23.1 15 (19:30) 10.83 (17:00) 0 0 0 0 0
24-09-2019 26.7 (14:50) 19 (00:00) 22.9 18.06 (14:40) 11.67 (14:40) 0 0 0 0 0
23-09-2019 26.6 (14:20) 19.4 (00:00) 23 16.67 (12:20) 11.67 (17:50) 0 0 0 0 0
22-09-2019 28.9 (14:00) 18.2 (00:00) 23.6 13.61 (21:00) 10 (21:30) 0 0 0 0 0
21-09-2019 27.8 (14:40) 17.4 (00:00) 22.6 9.72 (13:10) 6.67 (11:50) 0 0 0 0 0
20-09-2019 27.6 (16:40) 17.9 (00:00) 22.8 16.11 (02:30) 11.67 (02:00) 0 0 0 0 0
19-09-2019 27.6 (13:50) 18.9 (00:00) 23.3 16.39 (16:00) 11.11 (16:00) 0 0 0 0 0
18-09-2019 27.6 (13:30) 18.4 (00:00) 23 13.89 (15:30) 9.44 (15:20) 0 0 0 0 0
17-09-2019 27.4 (15:30) 19.5 (00:00) 23.4 13.33 (13:00) 8.89 (12:50) 0 0 0 0 0

Gráficas

Temp. máximas Temp. mínimas Temp. medias Precipitaciones Rachas de viento máximas Velocidades máximas media en intervalos de 10 minutos

Datos horarios

Fecha y hora oficial Temperatura (ºC) Velocidad del viento (km/h) Dirección del viento Racha (km/h) Dirección de racha Precipitación (mm) Presión (hPa) Tendencia (hPa) Humedad (%)
2019-10-16 23:00:00 19.2 16 Norte 29 Norte 0 -- -- 78
2019-10-16 22:00:00 19.2 16 Norte 26 Norte 0 -- -- 80
2019-10-16 21:00:00 19.1 16 Norte 29 Norte 0 -- -- 81
2019-10-16 20:00:00 19.5 18 Norte 28 Norte 0 -- -- 74
2019-10-16 19:00:00 20.1 18 Norte 29 Norte 0 -- -- 65
2019-10-16 18:00:00 20.5 19 Norte 34 Norte 0 -- -- 69
2019-10-16 17:00:00 21.2 23 Norte 34 Norte 0 -- -- 71
2019-10-16 16:00:00 20.2 17 Norte 30 Norte 0 -- -- 75
2019-10-16 15:00:00 19.8 17 Nordeste 28 Nordeste 0 -- -- 78
2019-10-16 14:00:00 19.6 17 Norte 31 Nordeste 0.2 -- -- 81
2019-10-16 13:00:00 20 19 Nordeste 32 Norte 0 -- -- 82
2019-10-16 12:00:00 20.5 25 Nordeste 38 Nordeste 0 -- -- 73
2019-10-16 11:00:00 20 28 Norte 39 Norte 0 -- -- 74
2019-10-16 10:00:00 19.4 23 Norte 37 Nordeste 0 -- -- 79
2019-10-16 09:00:00 19.4 22 Norte 34 Norte 0 -- -- 78
2019-10-16 08:00:00 18.4 20 Norte 33 Norte 0 -- -- 83
2019-10-16 07:00:00 18.5 19 Norte 32 Norte 0 -- -- 79
2019-10-16 06:00:00 18.3 17 Norte 30 Norte 0 -- -- 81
2019-10-16 05:00:00 18.5 18 Norte 33 Nordeste 0 -- -- 81
2019-10-16 04:00:00 18.8 18 Nordeste 29 Norte 0 -- -- 79
2019-10-16 03:00:00 18.8 16 Norte 28 Norte 0 -- -- 80
2019-10-16 02:00:00 18.9 19 Norte 33 Norte 0 -- -- 80
2019-10-16 01:00:00 19 24 Norte 35 Norte 0 -- -- 80
2019-10-16 00:00:00 19.1 24 Norte 42 Norte 0 -- -- 78
2019-10-15 23:00:00 19.2 27 Norte 42 Norte 0 -- -- 77
2019-10-15 22:00:00 19.4 24 Norte 36 Norte 0 -- -- 75
2019-10-15 21:00:00 19.4 23 Norte 38 Norte 0 -- -- 73
2019-10-15 20:00:00 19.4 28 Norte 42 Nordeste 0 -- -- 72
2019-10-15 19:00:00 19.9 30 Norte 45 Nordeste 0 -- -- 67
2019-10-15 18:00:00 21.1 30 Nordeste 45 Nordeste 0 -- -- 63
2019-10-15 17:00:00 22.5 28 Nordeste 50 Nordeste 0 -- -- 59
2019-10-15 16:00:00 22.6 30 Norte 45 Nordeste 0 -- -- 62
2019-10-15 15:00:00 20.9 21 Nordeste 33 Nordeste 0 -- -- 73
2019-10-15 14:00:00 21.9 19 Nordeste 37 Nordeste 0 -- -- 69
2019-10-15 13:00:00 23.9 24 Nordeste 37 Nordeste 0 -- -- 63
2019-10-15 12:00:00 23.8 24 Nordeste 37 Norte 0 -- -- 59
2019-10-15 11:00:00 22.5 23 Nordeste 36 Nordeste 0 -- -- 63
2019-10-15 10:00:00 19.5 21 Norte 32 Norte 0 -- -- 74
2019-10-15 09:00:00 18.8 21 Norte 35 Norte 0 -- -- 77
2019-10-15 08:00:00 18.5 24 Norte 39 Norte 0 -- -- 79
2019-10-15 07:00:00 18.6 25 Norte 40 Norte 0 -- -- 78
2019-10-15 06:00:00 18.9 26 Norte 39 Norte 0 -- -- 75
2019-10-15 05:00:00 18.7 27 Norte 44 Norte 0 -- -- 74
2019-10-15 04:00:00 18.7 26 Norte 43 Norte 0 -- -- 72
2019-10-15 03:00:00 19 26 Norte 50 Nordeste 0 -- -- 66
2019-10-15 02:00:00 18.7 30 Norte 43 Nordeste 0 -- -- 71
2019-10-15 01:00:00 19.1 33 Norte 51 Norte 0 -- -- 66
2019-10-15 00:00:00 19.1 26 Norte 43 Norte 0 -- -- 66
2019-10-14 23:00:00 19.4 30 Norte 43 Norte 0 -- -- 59
2019-10-14 22:00:00 19.8 22 Nordeste 42 Norte 0 -- -- 57
2019-10-14 21:00:00 20.5 26 Norte 44 Norte 0 -- -- 47
2019-10-14 20:00:00 20.9 26 Norte 37 Norte 0 -- -- 48
2019-10-14 19:00:00 21.6 31 Norte 45 Norte 0 -- -- 59
2019-10-14 18:00:00 22.6 32 Norte 51 Norte 0 -- -- 62
2019-10-14 17:00:00 23.5 33 Norte 53 Nordeste 0 -- -- 59
2019-10-14 16:00:00 24 35 Nordeste 54 Nordeste 0 -- -- 61
2019-10-14 15:00:00 24 37 Nordeste 56 Nordeste 0 -- -- 60
2019-10-14 14:00:00 24.6 31 Norte 50 Nordeste 0 -- -- 58
2019-10-14 13:00:00 23.8 33 Norte 48 Norte 0 -- -- 61
2019-10-14 12:00:00 23.7 32 Nordeste 48 Nordeste 0 -- -- 64
2019-10-14 11:00:00 21.9 29 Norte 43 Nordeste 0 -- -- 68
2019-10-14 10:00:00 20.3 25 Norte 44 Norte 0 -- -- 75
2019-10-14 09:00:00 19.4 22 Norte 39 Norte 0 -- -- 79
2019-10-14 08:00:00 18.4 24 Nordeste 41 Norte 0 -- -- 81
2019-10-14 07:00:00 18.7 25 Norte 38 Nordeste 0 -- -- 79
2019-10-14 06:00:00 19.5 15 Norte 28 Norte 0 -- -- 68
2019-10-14 05:00:00 18.3 11 Norte 21 Norte 0 -- -- 73
2019-10-14 04:00:00 17.8 7 Noroeste 14 Nordeste 0 -- -- 75
2019-10-14 03:00:00 18.7 6 Noroeste 25 Norte 0 -- -- 69
2019-10-14 02:00:00 17.9 6 Noroeste 28 Noroeste 0 -- -- 73
2019-10-14 01:00:00 18.4 14 Norte 21 Norte 0 -- -- 70
2019-10-14 00:00:00 18.6 8 Norte 17 Norte 0 -- -- 71
2019-10-13 23:00:00 18.5 11 Norte 17 Norte 0 -- -- 76
2019-10-13 22:00:00 19.1 6 Norte 13 Norte 0 -- -- 72
2019-10-13 21:00:00 19.5 6 Nordeste 13 Nordeste 0 -- -- 75
2019-10-13 20:00:00 20.4 9 Nordeste 14 Este 0 -- -- 73
2019-10-13 19:00:00 21.1 9 Nordeste 17 Nordeste 0 -- -- 70
2019-10-13 18:00:00 21.6 10 Este 19 Este 0 -- -- 67
2019-10-13 17:00:00 22.7 10 Nordeste 17 Nordeste 0 -- -- 62
2019-10-13 16:00:00 22.2 7 Este 21 Este 0 -- -- 62
2019-10-13 15:00:00 24.5 10 Este 22 Nordeste 0 -- -- 54
2019-10-13 14:00:00 23.9 10 Este 21 Este 0 -- -- 54
2019-10-13 13:00:00 24.4 9 Este 24 Sudeste 0 -- -- 52
2019-10-13 12:00:00 24.3 10 Este 18 Nordeste 0 -- -- 52
2019-10-13 11:00:00 22.7 6 Sudeste 14 Este 0 -- -- 55
2019-10-13 10:00:00 21.1 6 Nordeste 15 Norte 0 -- -- 61
2019-10-13 09:00:00 19.1 9 Norte 16 Noroeste 0 -- -- 66
2019-10-13 08:00:00 17.8 11 Norte 19 Noroeste 0 -- -- 70
2019-10-13 07:00:00 17.9 13 Norte 18 Norte 0 -- -- 71
2019-10-13 06:00:00 17.9 9 Norte 14 Norte 0 -- -- 72
2019-10-13 05:00:00 18.5 7 Norte 12 Norte 0 -- -- 71
2019-10-13 04:00:00 18.4 10 Norte 14 Norte 0 -- -- 73
2019-10-13 03:00:00 18 10 Norte 14 Norte 0 -- -- 73
2019-10-13 02:00:00 18.3 7 Norte 18 Norte 0 -- -- 74
2019-10-13 01:00:00 18.7 13 Norte 24 Nordeste 0 -- -- 81
2019-10-13 00:00:00 18.9 13 Norte 22 Norte 0 -- -- 79
2019-10-12 23:00:00 18.9 16 Norte 27 Norte 0 -- -- 75
2019-10-12 22:00:00 19.5 21 Nordeste 33 Norte 0 -- -- 79
2019-10-12 21:00:00 19.9 19 Norte 29 Nordeste 0 -- -- 77
2019-10-12 20:00:00 20.4 22 Nordeste 34 Nordeste 0 -- -- 76
2019-10-12 19:00:00 21.5 18 Norte 30 Norte 0 -- -- 69
2019-10-12 18:00:00 22 17 Nordeste 30 Nordeste 0 -- -- 69
2019-10-12 17:00:00 22.4 21 Nordeste 30 Nordeste 0 -- -- 67
2019-10-12 16:00:00 22.9 19 Nordeste 35 Nordeste 0 -- -- 67
2019-10-12 15:00:00 24.6 19 Nordeste 35 Este 0 -- -- 60
2019-10-12 14:00:00 25.3 19 Nordeste 40 Nordeste 0 -- -- 58
2019-10-12 13:00:00 25 19 Nordeste 33 Nordeste 0 -- -- 56
2019-10-12 12:00:00 23.6 23 Nordeste 36 Nordeste 0 -- -- 64
2019-10-12 11:00:00 21.1 19 Nordeste 28 Norte 0 -- -- 73
2019-10-12 10:00:00 20.5 19 Norte 31 Norte 0 -- -- 71
2019-10-12 09:00:00 18.9 9 Nordeste 25 Noroeste 0 -- -- 69
2019-10-12 08:00:00 18.8 13 Norte 31 Norte 0 -- -- 68
2019-10-12 07:00:00 18.7 16 Norte 24 Norte 0 -- -- 68
2019-10-12 06:00:00 18.2 12 Norte 19 Norte 0 -- -- 78
2019-10-12 05:00:00 18.6 13 Norte 30 Norte 0 -- -- 80
2019-10-12 04:00:00 19.1 19 Norte 30 Norte 0 -- -- 74
2019-10-12 03:00:00 19.2 11 Norte 30 Norte 0 -- -- 67
2019-10-12 02:00:00 19.3 17 Norte 28 Norte 0 -- -- 68
2019-10-12 01:00:00 19.7 8 Noroeste 30 Norte 0 -- -- 71
2019-10-12 00:00:00 19.7 13 Norte 27 Norte 0 -- -- 66
2019-10-11 23:00:00 19.9 19 Norte 30 Norte 0 -- -- 72
2019-10-11 22:00:00 20.4 17 Nordeste 40 Norte 0 -- -- 65
2019-10-11 21:00:00 20.8 23 Norte 36 Norte 0 -- -- 68
2019-10-11 20:00:00 20.8 22 Norte 33 Nordeste 0 -- -- 68
2019-10-11 19:00:00 21.8 24 Nordeste 34 Nordeste 0 -- -- 65
2019-10-11 18:00:00 23.6 23 Nordeste 36 Nordeste 0 -- -- 58
2019-10-11 17:00:00 25.1 23 Norte 41 Nordeste 0 -- -- 54
2019-10-11 16:00:00 25.4 26 Nordeste 40 Nordeste 0 -- -- 57
2019-10-11 15:00:00 25.5 23 Nordeste 38 Nordeste 0 -- -- 55
2019-10-11 14:00:00 25.9 25 Nordeste 39 Nordeste 0 -- -- 54
2019-10-11 13:00:00 25.6 24 Nordeste 37 Nordeste 0 -- -- 53
2019-10-11 12:00:00 25.1 23 Nordeste 35 Nordeste 0 -- -- 56
2019-10-11 11:00:00 24.1 19 Norte 32 Nordeste 0 -- -- 54
2019-10-11 10:00:00 21.6 5 Sudoeste 15 Sur 0 -- -- 66
2019-10-11 09:00:00 18.5 0 Calma 5 Noroeste 0 -- -- 82
2019-10-11 08:00:00 17.1 3 Oeste 10 Norte 0 -- -- 85
2019-10-11 07:00:00 17.3 2 Sudoeste 6 Noroeste 0 -- -- 85
2019-10-11 06:00:00 17.4 2 Este 5 Noroeste 0 -- -- 81
2019-10-11 05:00:00 18.5 4 Oeste 17 Norte 0 -- -- 75
2019-10-11 04:00:00 18.3 3 Noroeste 8 Noroeste 0 -- -- 77
2019-10-11 03:00:00 19 4 Noroeste 26 Norte 0 -- -- 72
2019-10-11 02:00:00 19.7 18 Norte 25 Norte 0 -- -- 66
2019-10-11 01:00:00 19.8 14 Norte 27 Norte 0 -- -- 77
2019-10-11 00:00:00 19.9 17 Norte 27 Norte 0 -- -- 80
2019-10-10 23:00:00 19.8 19 Norte 31 Nordeste 0 -- -- 83
2019-10-10 22:00:00 20.3 21 Nordeste 35 Nordeste 0 -- -- 81
2019-10-10 21:00:00 20.5 23 Nordeste 34 Norte 0 -- -- 79
2019-10-10 20:00:00 20.8 23 Norte 36 Norte 0 -- -- 79
2019-10-10 19:00:00 21.5 26 Nordeste 39 Nordeste 0 -- -- 76
2019-10-10 18:00:00 22.9 24 Nordeste 41 Norte 0 -- -- 70
2019-10-10 17:00:00 24.4 27 Nordeste 41 Nordeste 0 -- -- 61
2019-10-10 16:00:00 25 26 Nordeste 43 Nordeste 0 -- -- 59
2019-10-10 15:00:00 25.5 27 Nordeste 40 Nordeste 0 -- -- 59
2019-10-10 14:00:00 25.3 27 Nordeste 43 Nordeste 0 -- -- 55
2019-10-10 13:00:00 24.6 27 Nordeste 41 Nordeste 0 -- -- 60
2019-10-10 12:00:00 24.4 26 Nordeste 42 Nordeste 0 -- -- 62
2019-10-10 11:00:00 23.6 30 Nordeste 45 Nordeste 0 -- -- 65
2019-10-10 10:00:00 22.7 26 Norte 44 Norte 0 -- -- 60
2019-10-10 09:00:00 20.6 23 Norte 34 Norte 0 -- -- 66
2019-10-10 08:00:00 19.5 17 Norte 33 Norte 0 -- -- 69
2019-10-10 07:00:00 19.4 17 Norte 36 Norte 0 -- -- 69
2019-10-10 06:00:00 19.5 15 Norte 37 Norte 0 -- -- 70
2019-10-10 05:00:00 19.3 23 Norte 40 Norte 0 -- -- 72
2019-10-10 04:00:00 19.3 20 Norte 36 Norte 0 -- -- 72
2019-10-10 03:00:00 19.6 24 Norte 41 Norte 0 -- -- 72
2019-10-10 02:00:00 19.6 28 Norte 44 Norte 0 -- -- 72
2019-10-10 01:00:00 19.6 27 Norte 41 Norte 0 -- -- 71
2019-10-10 00:00:00 19.8 25 Norte 38 Nordeste 0 -- -- 69
2019-10-09 23:00:00 19.7 22 Norte 34 Norte 0 -- -- 69
2019-10-09 22:00:00 19.9 17 Norte 30 Norte 0 -- -- 68
2019-10-09 21:00:00 20.5 9 Norte 26 Norte 0 -- -- 70
2019-10-09 20:00:00 21.1 20 Norte 33 Norte 0 -- -- 68
2019-10-09 19:00:00 22.7 24 Norte 37 Nordeste 0 -- -- 62
2019-10-09 18:00:00 24.7 24 Nordeste 43 Nordeste 0 -- -- 58
2019-10-09 17:00:00 25.3 29 Nordeste 50 Nordeste 0 -- -- 56
2019-10-09 16:00:00 25.3 33 Nordeste 47 Nordeste 0 -- -- 56
2019-10-09 15:00:00 25.4 34 Nordeste 46 Nordeste 0 -- -- 55
2019-10-09 14:00:00 26.2 27 Norte 51 Nordeste 0 -- -- 53
2019-10-09 13:00:00 25 37 Norte 53 Nordeste 0 -- -- 56
2019-10-09 12:00:00 24.6 38 Nordeste 51 Nordeste 0 -- -- 57
2019-10-09 11:00:00 23.4 36 Nordeste 49 Nordeste 0 -- -- 60
2019-10-09 10:00:00 22 6 Oeste 28 Nordeste 0 -- -- 66
2019-10-09 09:00:00 19.3 21 Nordeste 39 Nordeste 0 -- -- 69
2019-10-09 08:00:00 17.5 3 Norte 28 Nordeste 0 -- -- 84
2019-10-09 07:00:00 18 17 Norte 33 Norte 0 -- -- 77
2019-10-09 06:00:00 17 3 Norte 12 Nordeste 0 -- -- 80
2019-10-09 05:00:00 17.6 0 Calma 9 Sur 0 -- -- 82
2019-10-09 04:00:00 18.4 3 Sur 13 Sudeste 0 -- -- 76
2019-10-09 03:00:00 19.7 9 Sur 29 Norte 0 -- -- 65
2019-10-09 02:00:00 20.7 12 Nordeste 22 Nordeste 0 -- -- 57
2019-10-09 01:00:00 19.1 9 Norte 24 Nordeste 0 -- -- 65
2019-10-09 00:00:00 19.1 4 Este 11 Oeste 0 -- -- 71
2019-10-08 23:00:00 19.8 4 Oeste 9 Sur 0 -- -- 73
2019-10-08 22:00:00 20.1 2 Oeste 7 Este 0 -- -- 72
2019-10-08 21:00:00 20.9 2 Nordeste 9 Sudoeste 0 -- -- 66
2019-10-08 20:00:00 22.5 2 Sudoeste 18 Nordeste 0 -- -- 68
2019-10-08 19:00:00 23.7 7 Sudeste 26 Sudoeste 0 -- -- 66
2019-10-08 18:00:00 25.9 17 Sudoeste 39 Nordeste 0 -- -- 59
2019-10-08 17:00:00 26.4 24 Nordeste 45 Nordeste 0 -- -- 57
2019-10-08 16:00:00 26.7 30 Nordeste 41 Nordeste 0 -- -- 56
2019-10-08 15:00:00 26.7 26 Nordeste 43 Nordeste 0 -- -- 57
2019-10-08 14:00:00 26.7 29 Nordeste 45 Nordeste 0 -- -- 56
2019-10-08 13:00:00 26.6 28 Nordeste 45 Nordeste 0 -- -- 56
2019-10-08 12:00:00 25.4 31 Nordeste 46 Norte 0 -- -- 59
2019-10-08 11:00:00 23.2 33 Norte 53 Norte 0 -- -- 66
2019-10-08 10:00:00 21.5 38 Nordeste 50 Nordeste 0 -- -- 72
2019-10-08 09:00:00 19.6 16 Nordeste 27 Nordeste 0 -- -- 76
2019-10-08 08:00:00 18.2 2 Norte 13 Nordeste 0 -- -- 79
2019-10-08 07:00:00 18.3 10 Norte 16 Norte 0 -- -- 79
2019-10-08 06:00:00 17.9 6 Norte 10 Norte 0 -- -- 77
2019-10-08 05:00:00 18.4 5 Norte 16 Nordeste 0 -- -- 79
2019-10-08 04:00:00 18.8 11 Norte 29 Nordeste 0 -- -- 81
2019-10-08 03:00:00 19.1 19 Norte 26 Norte 0 -- -- 81
2019-10-08 02:00:00 19 12 Nordeste 20 Nordeste 0 -- -- 79
2019-10-08 01:00:00 19.4 16 Nordeste 31 Nordeste 0 -- -- 77
2019-10-08 00:00:00 19.9 11 Norte 23 Nordeste 0 -- -- 73
2019-10-07 23:00:00 20.4 10 Nordeste 23 Norte 0 -- -- 74
2019-10-07 22:00:00 21 19 Norte 31 Nordeste 0 -- -- 72
2019-10-07 21:00:00 21.1 15 Nordeste 26 Nordeste 0 -- -- 74
2019-10-07 20:00:00 21.9 15 Nordeste 23 Nordeste 0 -- -- 72
2019-10-07 19:00:00 23.8 15 Nordeste 35 Nordeste 0 -- -- 66
2019-10-07 18:00:00 25.2 23 Nordeste 39 Nordeste 0 -- -- 63
2019-10-07 17:00:00 26.2 25 Nordeste 39 Nordeste 0 -- -- 60
2019-10-07 16:00:00 27.6 22 Nordeste 38 Nordeste 0 -- -- 55
2019-10-07 15:00:00 27.3 21 Nordeste 38 Nordeste 0 -- -- 56
2019-10-07 14:00:00 26.3 25 Nordeste 37 Nordeste 0 -- -- 58
2019-10-07 13:00:00 25.7 27 Nordeste 40 Este 0 -- -- 58
2019-10-07 12:00:00 25 24 Nordeste 40 Nordeste 0 -- -- 62
2019-10-07 11:00:00 23.7 24 Nordeste 40 Norte 0 -- -- 64
2019-10-07 10:00:00 21.9 9 Noroeste 35 Nordeste 0 -- -- 69
2019-10-07 09:00:00 19.7 5 Noroeste 34 Norte 0 -- -- 77
2019-10-07 08:00:00 18.9 5 Norte 48 Norte 0 -- -- 74
2019-10-07 07:00:00 19.5 31 Norte 44 Norte 0 -- -- 73
2019-10-07 06:00:00 19.5 33 Norte 45 Norte 0 -- -- 73
2019-10-07 05:00:00 19.4 25 Norte 41 Norte 0 -- -- 71
2019-10-07 04:00:00 18.8 3 Oeste 50 Norte 0 -- -- 77
2019-10-07 03:00:00 19.6 35 Norte 49 Norte 0 -- -- 72
2019-10-07 02:00:00 19.5 22 Norte 46 Nordeste 0 -- -- 72
2019-10-07 01:00:00 19.8 21 Norte 43 Norte 0 -- -- 70
2019-10-07 00:00:00 19.9 28 Norte 46 Norte 0 -- -- 73
2019-10-06 23:00:00 19.9 25 Norte 40 Norte 0 -- -- 74
2019-10-06 22:00:00 20.3 26 Norte 41 Nordeste 0 -- -- 71
2019-10-06 21:00:00 20.6 23 Norte 46 Norte 0 -- -- 72
2019-10-06 20:00:00 20.8 30 Norte 53 Norte 0 -- -- 72
2019-10-06 19:00:00 21.7 37 Norte 56 Norte 0 -- -- 68
2019-10-06 18:00:00 23.6 36 Norte 58 Norte 0 -- -- 63
2019-10-06 17:00:00 25 35 Nordeste 52 Norte 0 -- -- 59
2019-10-06 16:00:00 25.1 36 Nordeste 52 Norte 0 -- -- 60
2019-10-06 15:00:00 25.8 35 Norte 56 Norte 0 -- -- 56
2019-10-06 14:00:00 25.3 37 Nordeste 56 Norte 0 -- -- 59
2019-10-06 13:00:00 25.4 36 Nordeste 57 Nordeste 0 -- -- 57
2019-10-06 12:00:00 24.7 35 Nordeste 57 Nordeste 0 -- -- 58
2019-10-06 11:00:00 24 36 Norte 61 Norte 0 -- -- 61
2019-10-06 10:00:00 22.2 39 Norte 59 Norte 0 -- -- 64
2019-10-06 09:00:00 20.8 41 Norte 62 Norte 0 -- -- 68
2019-10-06 08:00:00 20.1 32 Norte 55 Norte 0 -- -- 71
2019-10-06 07:00:00 20.1 33 Norte 58 Nordeste 0 -- -- 72
2019-10-06 06:00:00 20.3 36 Norte 60 Norte 0 -- -- 72
2019-10-06 05:00:00 20.7 38 Norte 62 Norte 0 -- -- 70
2019-10-06 04:00:00 20.6 37 Norte 63 Norte 0 -- -- 71
2019-10-06 03:00:00 20.8 37 Norte 59 Norte 0 -- -- 68
2019-10-06 02:00:00 20.9 39 Norte 67 Norte 0 -- -- 69
2019-10-06 01:00:00 20.6 37 Norte 61 Norte 0 -- -- 70
2019-10-06 00:00:00 21.5 39 Norte 60 Norte 0 -- -- 61
2019-10-05 23:00:00 22.9 35 Norte 54 Norte 0 -- -- 54
2019-10-05 22:00:00 23.4 35 Norte 56 Norte 0 -- -- 46
2019-10-05 21:00:00 24.2 32 Norte 59 Norte 0 -- -- 41
2019-10-05 20:00:00 22.4 39 Norte 63 Norte 0 -- -- 65
2019-10-05 19:00:00 24.3 37 Norte 61 Norte 0 -- -- 57
2019-10-05 18:00:00 26 38 Norte 61 Norte 0 -- -- 52
2019-10-05 17:00:00 27.5 40 Norte 63 Norte 0 -- -- 49
2019-10-05 16:00:00 27.4 40 Norte 63 Norte 0 -- -- 53
2019-10-05 15:00:00 28.9 41 Norte 61 Norte 0 -- -- 44
2019-10-05 14:00:00 29.2 37 Norte 66 Norte 0 -- -- 42
2019-10-05 13:00:00 28.6 39 Norte 68 Norte 0 -- -- 41
2019-10-05 12:00:00 26.7 44 Norte 66 Norte 0 -- -- 52
2019-10-05 11:00:00 25.8 40 Norte 75 Norte 0 -- -- 55
2019-10-05 10:00:00 24.2 46 Norte 71 Norte 0 -- -- 58
2019-10-05 09:00:00 22.9 49 Norte 71 Norte 0 -- -- 61
2019-10-05 08:00:00 22 43 Norte 67 Norte 0 -- -- 61
2019-10-05 07:00:00 22.2 44 Norte 67 Norte 0 -- -- 59
2019-10-05 06:00:00 22 40 Norte 64 Norte 0 -- -- 58
2019-10-05 05:00:00 22.5 33 Norte 58 Norte 0 -- -- 52
2019-10-05 04:00:00 23.9 29 Norte 54 Norte 0 -- -- 42
2019-10-05 03:00:00 22.4 30 Norte 50 Norte 0 -- -- 54
2019-10-05 02:00:00 23.5 33 Norte 51 Norte 0 -- -- 44
2019-10-05 01:00:00 26.1 34 Norte 55 Norte 0 -- -- 25
2019-10-05 00:00:00 27 33 Norte 52 Norte 0 -- -- 22
2019-10-04 23:00:00 27.2 34 Norte 50 Norte 0 -- -- 23
2019-10-04 22:00:00 27.7 32 Norte 45 Norte 0 -- -- 22
2019-10-04 21:00:00 28.1 26 Norte 45 Norte 0 -- -- 23
2019-10-04 20:00:00 27.6 29 Norte 45 Norte 0 -- -- 27
2019-10-04 19:00:00 27.4 25 Norte 41 Norte 0 -- -- 42
2019-10-04 18:00:00 29.5 31 Norte 47 Norte 0 -- -- 36
2019-10-04 17:00:00 30 28 Norte 47 Nordeste 0 -- -- 43
2019-10-04 16:00:00 32.5 27 Nordeste 45 Norte 0 -- -- 32
2019-10-04 15:00:00 32 30 Norte 46 Norte 0 -- -- 31
2019-10-04 14:00:00 32.7 27 Norte 47 Norte 0 -- -- 29
2019-10-04 13:00:00 32 28 Norte 47 Norte 0 -- -- 30
2019-10-04 12:00:00 31.3 32 Norte 51 Norte 0 -- -- 25
2019-10-04 11:00:00 30 32 Norte 58 Norte 0 -- -- 28
2019-10-04 10:00:00 28.9 33 Norte 57 Norte 0 -- -- 30
2019-10-04 09:00:00 28.4 32 Norte 59 Norte 0 -- -- 27
2019-10-04 08:00:00 27.7 38 Norte 63 Norte 0 -- -- 27
2019-10-04 07:00:00 27.5 40 Norte 68 Norte 0 -- -- 27
2019-10-04 06:00:00 27.6 39 Norte 62 Norte 0 -- -- 26
2019-10-04 05:00:00 27.8 41 Norte 60 Norte 0 -- -- 26
2019-10-04 04:00:00 27.6 36 Norte 55 Noroeste 0 -- -- 26
2019-10-04 03:00:00 27.7 36 Norte 61 Norte 0 -- -- 26
2019-10-04 02:00:00 28.1 36 Norte 60 Norte 0 -- -- 27
2019-10-04 01:00:00 28.1 40 Norte 60 Norte 0 -- -- 27
2019-10-04 00:00:00 28 33 Norte 59 Norte 0 -- -- 28
2019-10-03 23:00:00 27.6 31 Norte 58 Norte 0 -- -- 28
2019-10-03 22:00:00 28.3 31 Norte 53 Norte 0 -- -- 24
2019-10-03 21:00:00 28 30 Norte 49 Norte 0 -- -- 26
2019-10-03 20:00:00 26.2 19 Norte 43 Nordeste 0 -- -- 36
2019-10-03 19:00:00 27.5 26 Nordeste 48 Norte 0 -- -- 45
2019-10-03 18:00:00 30.7 31 Norte 50 Norte 0 -- -- 32
2019-10-03 17:00:00 30.8 26 Nordeste 44 Nordeste 0 -- -- 44
2019-10-03 16:00:00 30.3 28 Nordeste 44 Nordeste 0 -- -- 48
2019-10-03 15:00:00 30 29 Nordeste 46 Nordeste 0 -- -- 48
2019-10-03 14:00:00 31.2 29 Nordeste 44 Norte 0 -- -- 43
2019-10-03 13:00:00 30.7 24 Nordeste 42 Nordeste 0 -- -- 47
2019-10-03 12:00:00 31.3 28 Nordeste 48 Nordeste 0 -- -- 38
2019-10-03 11:00:00 30.3 26 Nordeste 42 Nordeste 0 -- -- 36
2019-10-03 10:00:00 29 25 Nordeste 39 Nordeste 0 -- -- 34
2019-10-03 09:00:00 27.2 27 Norte 47 Norte 0 -- -- 33
2019-10-03 08:00:00 25.1 31 Norte 46 Nordeste 0 -- -- 42
2019-10-03 07:00:00 26.4 31 Norte 46 Norte 0 -- -- 32
2019-10-03 06:00:00 26.6 30 Norte 48 Norte 0 -- -- 32
2019-10-03 05:00:00 27.5 34 Norte 47 Norte 0 -- -- 31
2019-10-03 04:00:00 26.6 32 Norte 48 Norte 0 -- -- 33
2019-10-03 03:00:00 26.5 34 Norte 51 Norte 0 -- -- 35
2019-10-03 02:00:00 26.6 34 Norte 52 Norte 0 -- -- 33
2019-10-03 01:00:00 28.9 32 Norte 42 Nordeste 0 -- -- 15
2019-10-03 00:00:00 25.8 27 Nordeste 36 Nordeste 0 -- -- 35
2019-10-02 23:00:00 25.8 20 Nordeste 30 Nordeste 0 -- -- 37
2019-10-02 22:00:00 28.2 18 Nordeste 25 Nordeste 0 -- -- 29
2019-10-02 21:00:00 29.9 17 Nordeste 31 Norte 0 -- -- 25
2019-10-02 20:00:00 28.8 15 Nordeste 22 Norte 0 -- -- 24
2019-10-02 19:00:00 29.3 15 Nordeste 27 Nordeste 0 -- -- 42
2019-10-02 18:00:00 30.1 19 Nordeste 29 Nordeste 0 -- -- 44
2019-10-02 17:00:00 32.2 17 Nordeste 27 Nordeste 0 -- -- 43
2019-10-02 16:00:00 34.5 19 Nordeste 33 Nordeste 0 -- -- 38
2019-10-02 15:00:00 35.1 21 Nordeste 33 Nordeste 0 -- -- 34
2019-10-02 14:00:00 36.2 23 Nordeste 34 Nordeste 0 -- -- 25
2019-10-02 13:00:00 36.1 21 Nordeste 38 Nordeste 0 -- -- 28
2019-10-02 12:00:00 35.4 24 Nordeste 38 Nordeste 0 -- -- 13
2019-10-02 11:00:00 34.6 29 Nordeste 42 Nordeste 0 -- -- 13
2019-10-02 10:00:00 33.1 24 Nordeste 45 Norte 0 -- -- 15
2019-10-02 09:00:00 31.1 27 Norte 49 Norte 0 -- -- 17
2019-10-02 08:00:00 29.9 33 Norte 50 Norte 0 -- -- 19
2019-10-02 07:00:00 29.5 36 Norte 51 Norte 0 -- -- 20
2019-10-02 06:00:00 28.8 32 Norte 48 Norte 0 -- -- 21
2019-10-02 05:00:00 28.1 30 Norte 53 Norte 0 -- -- 22
2019-10-02 04:00:00 30.6 31 Norte 44 Norte 0 -- -- 19
2019-10-02 03:00:00 31.2 30 Norte 44 Norte 0 -- -- 19
2019-10-02 02:00:00 29.8 27 Norte 45 Norte 0 -- -- 22
2019-10-02 01:00:00 29.1 24 Nordeste 38 Nordeste 0 -- -- 24
2019-10-02 00:00:00 28.7 18 Nordeste 36 Norte 0 -- -- 26
2019-10-01 23:00:00 30.3 29 Norte 39 Norte 0 -- -- 23
2019-10-01 22:00:00 30.4 25 Norte 39 Norte 0 -- -- 22
2019-10-01 21:00:00 29 22 Nordeste 35 Norte 0 -- -- 33
2019-10-01 20:00:00 30.3 26 Norte 36 Nordeste 0 -- -- 28
2019-10-01 19:00:00 31.2 19 Nordeste 41 Norte 0 -- -- 31
2019-10-01 18:00:00 32.4 29 Nordeste 41 Nordeste 0 -- -- 29
2019-10-01 17:00:00 32.1 30 Nordeste 45 Nordeste 0 -- -- 33
2019-10-01 16:00:00 33.5 31 Nordeste 51 Nordeste 0 -- -- 31
2019-10-01 15:00:00 33.3 36 Nordeste 47 Nordeste 0 -- -- 31
2019-10-01 14:00:00 34.1 30 Nordeste 44 Nordeste 0 -- -- 34
2019-10-01 13:00:00 34 28 Nordeste 41 Nordeste 0 -- -- 38
2019-10-01 12:00:00 33.6 18 Nordeste 25 Nordeste 0 -- -- 40
2019-10-01 11:00:00 -- 16 Nordeste 32 Norte 0 -- -- 23
2019-10-01 10:00:00 34.1 21 Nordeste 40 Norte 0 -- -- 18
2019-10-01 09:00:00 33.1 26 Norte 43 Norte 0 -- -- 17
2019-10-01 08:00:00 30.8 32 Norte 46 Norte 0 -- -- 19
2019-10-01 07:00:00 30.5 31 Norte 48 Norte 0 -- -- 20
2019-10-01 06:00:00 29.3 29 Norte 41 Norte 0 -- -- 21
2019-10-01 05:00:00 29 28 Norte 49 Norte 0 -- -- 20
2019-10-01 04:00:00 29 38 Norte 57 Norte 0 -- -- 18
2019-10-01 03:00:00 29 41 Norte 59 Norte 0 -- -- 17
2019-10-01 02:00:00 28.7 36 Norte 56 Norte 0 -- -- 20
2019-10-01 01:00:00 29.3 34 Norte 53 Norte 0 -- -- 23
2019-10-01 00:00:00 28.8 32 Norte 48 Nordeste 0 -- -- 24
2019-09-30 23:00:00 29.1 35 Nordeste 51 Norte 0 -- -- 23
2019-09-30 22:00:00 28.6 26 Nordeste 39 Nordeste 0 -- -- 22
2019-09-30 21:00:00 28.8 29 Norte 40 Norte 0 -- -- 28
2019-09-30 20:00:00 24.6 3 Sur 15 Sur 0 -- -- 69
2019-09-30 19:00:00 28.7 11 Sur 34 Nordeste 0 -- -- 54
2019-09-30 18:00:00 32.2 22 Nordeste 35 Nordeste 0 -- -- 38
2019-09-30 17:00:00 33.5 23 Nordeste 33 Nordeste 0 -- -- 35
2019-09-30 16:00:00 33.3 23 Nordeste 37 Nordeste 0 -- -- 40
2019-09-30 15:00:00 34.6 27 Nordeste 40 Nordeste 0 -- -- 31
2019-09-30 14:00:00 -- 26 Nordeste 36 Nordeste 0 -- -- 31
2019-09-30 13:00:00 -- 22 Nordeste 34 Norte 0 -- -- 33
2019-09-30 12:00:00 34.6 22 Nordeste 35 Nordeste 0 -- -- 26
2019-09-30 11:00:00 -- 22 Nordeste 36 Norte 0 -- -- 16
2019-09-30 10:00:00 33.2 20 Nordeste 42 Norte 0 -- -- 17
2019-09-30 09:00:00 30.6 28 Norte 44 Norte 0 -- -- 19
2019-09-30 08:00:00 29.7 32 Norte 47 Norte 0 -- -- 20
2019-09-30 07:00:00 29.5 28 Norte 50 Norte 0 -- -- 21
2019-09-30 06:00:00 29.5 33 Norte 46 Nordeste 0 -- -- 21
2019-09-30 05:00:00 28.9 25 Nordeste 45 Norte 0 -- -- 22
2019-09-30 04:00:00 28.3 33 Norte 44 Norte 0 -- -- 23
2019-09-30 03:00:00 29.6 28 Norte 45 Norte 0 -- -- 22
2019-09-30 02:00:00 29.9 29 Norte 42 Norte 0 -- -- 22
2019-09-30 01:00:00 28.3 26 Norte 39 Norte 0 -- -- 24
2019-09-30 00:00:00 28.6 21 Norte 40 Nordeste 0 -- -- 25
2019-09-29 23:00:00 27.7 23 Nordeste 38 Nordeste 0 -- -- 30
2019-09-29 22:00:00 26.4 22 Nordeste 31 Nordeste 0 -- -- 39
2019-09-29 21:00:00 25.6 17 Nordeste 22 Nordeste 0 -- -- 47
2019-09-29 20:00:00 24.5 12 Nordeste 20 Nordeste 0 -- -- 65
2019-09-29 19:00:00 26.5 9 Nordeste 13 Nordeste 0 -- -- 62
2019-09-29 18:00:00 28.6 8 Nordeste 16 Este 0 -- -- 56
2019-09-29 17:00:00 30.6 14 Nordeste 26 Nordeste 0 -- -- 51
2019-09-29 16:00:00 30.8 15 Nordeste 25 Nordeste 0 -- -- 50
2019-09-29 15:00:00 30.5 18 Nordeste 26 Nordeste 0 -- -- 50
2019-09-29 14:00:00 30.4 16 Nordeste 28 Nordeste 0 -- -- 50
2019-09-29 13:00:00 29.7 18 Nordeste 31 Nordeste 0 -- -- 52
2019-09-29 12:00:00 27.1 23 Nordeste 32 Nordeste 0 -- -- 59
2019-09-29 11:00:00 26.8 6 Nordeste 19 Nordeste 0 -- -- 57
2019-09-29 10:00:00 24 9 Nordeste 24 Nordeste 0 -- -- 62
2019-09-29 09:00:00 21.3 12 Norte 22 Nordeste 0 -- -- 68
2019-09-29 08:00:00 19.6 6 Norte 29 Nordeste 0 -- -- 70
2019-09-29 07:00:00 19.4 25 Nordeste 39 Norte 0 -- -- 79
2019-09-29 06:00:00 19.5 21 Norte 41 Nordeste 0 -- -- 77
2019-09-29 05:00:00 19.7 17 Nordeste 27 Nordeste 0 -- -- 75
2019-09-29 04:00:00 19.6 15 Nordeste 22 Nordeste 0 -- -- 76
2019-09-29 03:00:00 19.2 7 Norte 12 Nordeste 0 -- -- 75
2019-09-29 02:00:00 19.6 6 Norte 10 Nordeste 0 -- -- 72
2019-09-29 01:00:00 19.7 10 Nordeste 15 Nordeste 0 -- -- 74
2019-09-29 00:00:00 20.5 8 Norte 19 Nordeste 0 -- -- 69
2019-09-28 23:00:00 21 12 Nordeste 28 Nordeste 0 -- -- 69
2019-09-28 22:00:00 22.3 19 Nordeste 26 Nordeste 0 -- -- 60
2019-09-28 21:00:00 22.4 13 Nordeste 18 Nordeste 0 -- -- 60
2019-09-28 20:00:00 22.3 10 Nordeste 26 Nordeste 0 -- -- 70
2019-09-28 19:00:00 23.8 20 Norte 33 Nordeste 0 -- -- 65
2019-09-28 18:00:00 25.2 20 Nordeste 37 Norte 0 -- -- 62
2019-09-28 17:00:00 25.6 23 Norte 42 Nordeste 0 -- -- 61
2019-09-28 16:00:00 25.9 30 Nordeste 51 Nordeste 0 -- -- 61
2019-09-28 15:00:00 26 34 Nordeste 53 Nordeste 0 -- -- 59
2019-09-28 14:00:00 26 32 Nordeste 53 Nordeste 0 -- -- 60
2019-09-28 13:00:00 25.3 34 Nordeste 51 Norte 0 -- -- 62
2019-09-28 12:00:00 24.5 32 Nordeste 51 Nordeste 0 -- -- 64
2019-09-28 11:00:00 23.4 31 Norte 54 Nordeste 0 -- -- 67
2019-09-28 10:00:00 21.9 33 Nordeste 52 Norte 0 -- -- 70
2019-09-28 09:00:00 20.1 33 Norte 50 Norte 0 -- -- 78
2019-09-28 08:00:00 19.6 15 Norte 35 Norte 0 -- -- 74
2019-09-28 07:00:00 19.9 17 Norte 29 Norte 0 -- -- 72
2019-09-28 06:00:00 19.5 22 Norte 39 Norte 0 -- -- 78
2019-09-28 05:00:00 19.5 24 Norte 35 Nordeste 0 -- -- 79
2019-09-28 04:00:00 19.5 17 Norte 40 Norte 0 -- -- 78
2019-09-28 03:00:00 19.8 12 Norte 38 Norte 0 -- -- 73
2019-09-28 02:00:00 19.7 26 Norte 40 Norte 0 -- -- 78
2019-09-28 01:00:00 20 21 Norte 40 Norte 0 -- -- 76
2019-09-28 00:00:00 19.9 30 Norte 46 Norte 0 -- -- 78
2019-09-27 23:00:00 20 24 Norte 45 Norte 0 -- -- 76
2019-09-27 22:00:00 20.6 25 Norte 36 Norte 0 -- -- 74
2019-09-27 21:00:00 21.3 16 Norte 35 Norte 0 -- -- 72
2019-09-27 20:00:00 21.5 26 Nordeste 44 Norte 0 -- -- 71
2019-09-27 19:00:00 22.5 35 Norte 55 Nordeste 0 -- -- 67
2019-09-27 18:00:00 24.2 35 Norte 53 Nordeste 0 -- -- 62
2019-09-27 17:00:00 25.7 31 Nordeste 54 Nordeste 0 -- -- 59
2019-09-27 16:00:00 26 34 Nordeste 54 Nordeste 0 -- -- 59
2019-09-27 15:00:00 26.4 32 Nordeste 51 Nordeste 0 -- -- 57
2019-09-27 14:00:00 26.9 32 Nordeste 51 Nordeste 0 -- -- 56
2019-09-27 13:00:00 26.3 33 Norte 53 Nordeste 0 -- -- 57
2019-09-27 12:00:00 25.5 33 Nordeste 54 Norte 0 -- -- 58
2019-09-27 11:00:00 24.2 31 Norte 54 Norte 0 -- -- 63
2019-09-27 10:00:00 22.2 36 Norte 54 Nordeste 0 -- -- 70
2019-09-27 09:00:00 20.6 35 Norte 50 Norte 0 -- -- 76
2019-09-27 08:00:00 19.6 24 Norte 42 Norte 0 -- -- 79
2019-09-27 07:00:00 19.7 33 Norte 45 Norte 0 -- -- 76
2019-09-27 06:00:00 19.7 23 Norte 41 Norte 0 -- -- 76
2019-09-27 05:00:00 19.7 18 Norte 38 Norte 0 -- -- 78
2019-09-27 04:00:00 19.4 3 Norte 41 Norte 0 -- -- 77
2019-09-27 03:00:00 20 23 Norte 37 Norte 0 -- -- 77
2019-09-27 02:00:00 20.2 16 Norte 46 Norte 0 -- -- 74
2019-09-27 01:00:00 20.3 30 Norte 54 Norte 0 -- -- 74
2019-09-27 00:00:00 20.2 30 Norte 46 Norte 0 -- -- 77
2019-09-26 23:00:00 20.5 27 Norte 41 Norte 0 -- -- 76
2019-09-26 22:00:00 20.9 20 Norte 40 Norte 0 -- -- 71
2019-09-26 21:00:00 20.9 28 Norte 46 Norte 0 -- -- 73
2019-09-26 20:00:00 21.2 28 Norte 46 Norte 0 -- -- 72
2019-09-26 19:00:00 22.6 32 Nordeste 51 Nordeste 0 -- -- 67
2019-09-26 18:00:00 24.7 31 Norte 49 Nordeste 0 -- -- 64
2019-09-26 17:00:00 25.4 33 Nordeste 53 Nordeste 0 -- -- 62
2019-09-26 16:00:00 26 32 Norte 51 Nordeste 0 -- -- 59
2019-09-26 15:00:00 26 38 Nordeste 52 Nordeste 0 -- -- 57
2019-09-26 14:00:00 26.8 32 Norte 55 Norte 0 -- -- 58
2019-09-26 13:00:00 25.9 39 Norte 63 Norte 0 -- -- 59
2019-09-26 12:00:00 25 41 Nordeste 57 Norte 0 -- -- 61
2019-09-26 11:00:00 23.8 38 Norte 58 Norte 0 -- -- 62
2019-09-26 10:00:00 22.5 33 Norte 50 Norte 0 -- -- 69
2019-09-26 09:00:00 20.8 35 Norte 50 Norte 0 -- -- 73
2019-09-26 08:00:00 19.9 33 Norte 53 Nordeste 0 -- -- 76
2019-09-26 07:00:00 19.7 33 Norte 47 Norte 0 -- -- 77
2019-09-26 06:00:00 19.7 29 Norte 49 Norte 0 -- -- 76
2019-09-26 05:00:00 19.8 35 Norte 58 Norte 0 -- -- 77
2019-09-26 04:00:00 19.9 31 Norte 47 Norte 0 -- -- 73
2019-09-26 03:00:00 20.3 28 Norte 43 Norte 0 -- -- 66
2019-09-26 02:00:00 20.4 18 Norte 36 Norte 0 -- -- 67
2019-09-26 01:00:00 20.5 6 Norte 39 Norte 0 -- -- 67
2019-09-26 00:00:00 21.3 23 Norte 49 Norte 0 -- -- 55
2019-09-25 23:00:00 20.8 32 Norte 52 Norte 0 -- -- 69
2019-09-25 22:00:00 21 31 Norte 45 Norte 0 -- -- 68
2019-09-25 21:00:00 21.2 28 Norte 53 Norte 0 -- -- 70
2019-09-25 20:00:00 21.8 38 Norte 54 Nordeste 0 -- -- 69
2019-09-25 19:00:00 23.4 33 Norte 52 Norte 0 -- -- 64
2019-09-25 18:00:00 25.3 36 Norte 51 Nordeste 0 -- -- 57
2019-09-25 17:00:00 26.6 39 Norte 51 Norte 0 -- -- 51
2019-09-25 16:00:00 27.4 37 Nordeste 52 Norte 0 -- -- 48
2019-09-25 15:00:00 27.7 38 Nordeste 54 Nordeste 0 -- -- 49
2019-09-25 14:00:00 27.6 36 Norte 53 Nordeste 0 -- -- 48
2019-09-25 13:00:00 27.7 34 Norte 50 Norte 0 -- -- 46
2019-09-25 12:00:00 28.6 30 Nordeste 46 Nordeste 0 -- -- 39
2019-09-25 11:00:00 26.7 25 Norte 49 Norte 0 -- -- 46
2019-09-25 10:00:00 24.1 28 Norte 45 Norte 0 -- -- 50
2019-09-25 09:00:00 20.3 2 Oeste 6 Sudoeste 0 -- -- 74
2019-09-25 08:00:00 20.8 10 Noroeste 26 Norte 0 -- -- 65
2019-09-25 07:00:00 18.5 6 Noroeste 30 Norte 0 -- -- 78
2019-09-25 06:00:00 17.8 4 Noroeste 10 Norte 0 -- -- 83
2019-09-25 05:00:00 18.1 6 Norte 18 Sur 0 -- -- 81
2019-09-25 04:00:00 18.1 4 Noroeste 8 Nordeste 0 -- -- 80
2019-09-25 03:00:00 18.2 3 Noroeste 8 Noroeste 0 -- -- 77
2019-09-25 02:00:00 19.7 11 Noroeste 39 Norte 0 -- -- 71
2019-09-25 01:00:00 19.6 27 Norte 48 Norte 0 -- -- 69
2019-09-25 00:00:00 19.8 22 Norte 38 Norte 0 -- -- 69
2019-09-24 23:00:00 19.8 5 Norte 26 Norte 0 -- -- 69
2019-09-24 22:00:00 20.2 9 Nordeste 26 Nordeste 0 -- -- 68
2019-09-24 21:00:00 21.1 2 Norte 45 Norte 0 -- -- 67
2019-09-24 20:00:00 21.6 23 Nordeste 40 Nordeste 0 -- -- 67
2019-09-24 19:00:00 23.5 26 Nordeste 48 Norte 0 -- -- 61
2019-09-24 18:00:00 25.3 31 Nordeste 54 Nordeste 0 -- -- 55
2019-09-24 17:00:00 26.1 35 Norte 55 Nordeste 0 -- -- 54
2019-09-24 16:00:00 26.2 40 Norte 59 Nordeste 0 -- -- 55
2019-09-24 15:00:00 26.4 41 Nordeste 65 Nordeste 0 -- -- 53
2019-09-24 14:00:00 26.3 36 Norte 55 Norte 0 -- -- 53
2019-09-24 13:00:00 25.9 37 Norte 58 Norte 0 -- -- 55
2019-09-24 12:00:00 26.1 31 Norte 46 Norte 0 -- -- 55
2019-09-24 11:00:00 24 30 Norte 48 Norte 0 -- -- 62
2019-09-24 10:00:00 22.7 30 Norte 47 Norte 0 -- -- 67
2019-09-24 09:00:00 20.7 10 Norte 28 Norte 0 -- -- 75
2019-09-24 08:00:00 19.5 4 Noroeste 44 Norte 0 -- -- 80
2019-09-24 07:00:00 19.6 28 Norte 51 Norte 0 -- -- 79
2019-09-24 06:00:00 20.2 32 Norte 54 Norte 0 -- -- 77
2019-09-24 05:00:00 20.1 33 Norte 50 Norte 0 -- -- 72
2019-09-24 04:00:00 19.6 32 Norte 44 Nordeste 0 -- -- 76
2019-09-24 03:00:00 19.7 31 Norte 48 Norte 0 -- -- 76
2019-09-24 02:00:00 19.8 28 Norte 45 Norte 0 -- -- 73
2019-09-24 01:00:00 20 29 Norte 45 Norte 0 -- -- 72
2019-09-24 00:00:00 20.4 28 Norte 47 Norte 0 -- -- 69
2019-09-23 23:00:00 21 26 Norte 51 Norte 0 -- -- 66
2019-09-23 22:00:00 21 32 Norte 52 Norte 0 -- -- 67
2019-09-23 21:00:00 21.1 32 Norte 49 Nordeste 0 -- -- 68
2019-09-23 20:00:00 21.5 32 Norte 50 Norte 0 -- -- 68
2019-09-23 19:00:00 22.7 35 Norte 54 Norte 0 -- -- 64
2019-09-23 18:00:00 24.1 37 Norte 55 Nordeste 0 -- -- 57
2019-09-23 17:00:00 25.6 35 Norte 54 Norte 0 -- -- 54
2019-09-23 16:00:00 26.4 32 Norte 59 Nordeste 0 -- -- 55
2019-09-23 15:00:00 26 35 Norte 55 Norte 0 -- -- 59
2019-09-23 14:00:00 26.5 33 Norte 55 Norte 0 -- -- 55
2019-09-23 13:00:00 25.1 36 Nordeste 60 Nordeste 0 -- -- 58
2019-09-23 12:00:00 24.8 36 Norte 52 Norte 0 -- -- 58
2019-09-23 11:00:00 23.5 30 Norte 46 Nordeste 0 -- -- 65
2019-09-23 10:00:00 22.1 31 Norte 59 Norte 0 -- -- 73
2019-09-23 09:00:00 20.4 33 Norte 49 Nordeste 0 -- -- 80
2019-09-23 08:00:00 19.5 20 Norte 31 Norte 0 -- -- 81
2019-09-23 07:00:00 20 22 Norte 41 Norte 0 -- -- 84
2019-09-23 06:00:00 20.4 19 Norte 32 Norte 0 -- -- 81
2019-09-23 05:00:00 20.5 11 Norte 25 Norte 0 -- -- 82
2019-09-23 04:00:00 20.6 19 Norte 37 Norte 0 -- -- 80
2019-09-23 03:00:00 20.5 26 Norte 36 Nordeste 0 -- -- 84
2019-09-23 02:00:00 20.8 21 Nordeste 40 Nordeste 0 -- -- 86
2019-09-23 01:00:00 20.6 26 Norte 39 Norte 0 -- -- 89
2019-09-23 00:00:00 20.6 22 Nordeste 39 Norte 0 -- -- 89
2019-09-22 23:00:00 21.2 25 Norte 42 Nordeste 0 -- -- 84
2019-09-22 22:00:00 20.8 30 Norte 46 Norte 0 -- -- 90
2019-09-22 21:00:00 21.5 32 Norte 49 Norte 0 -- -- 88
2019-09-22 20:00:00 23.7 21 Norte 35 Nordeste 0 -- -- 74
2019-09-22 19:00:00 25.6 21 Norte 39 Nordeste 0 -- -- 67
2019-09-22 18:00:00 27 27 Nordeste 42 Nordeste 0 -- -- 65
2019-09-22 17:00:00 28.1 27 Nordeste 46 Nordeste 0 -- -- 60
2019-09-22 16:00:00 27.9 32 Nordeste 46 Nordeste 0 -- -- 61
2019-09-22 15:00:00 28.2 32 Nordeste 45 Nordeste 0 -- -- 60
2019-09-22 14:00:00 28.9 27 Nordeste 47 Nordeste 0 -- -- 56
2019-09-22 13:00:00 28.8 28 Nordeste 42 Nordeste 0 -- -- 56
2019-09-22 12:00:00 28.1 22 Nordeste 44 Nordeste 0 -- -- 55
2019-09-22 11:00:00 26.6 26 Nordeste 40 Nordeste 0 -- -- 57
2019-09-22 10:00:00 24.9 17 Nordeste 28 Nordeste 0 -- -- 61
2019-09-22 09:00:00 22.1 18 Nordeste 28 Nordeste 0 -- -- 69
2019-09-22 08:00:00 18.5 11 Nordeste 16 Nordeste 0 -- -- 78
2019-09-22 07:00:00 18.3 3 Oeste 14 Norte 0 -- -- 86
2019-09-22 06:00:00 18.3 6 Norte 8 Norte 0 -- -- 82
2019-09-22 05:00:00 18.5 2 Oeste 4 Noroeste 0 -- -- 91
2019-09-22 04:00:00 18.8 0 Calma 6 Norte 0 -- -- 90
2019-09-22 03:00:00 18.9 0 Calma 5 Oeste 0 -- -- 90
2019-09-22 02:00:00 19.1 4 Oeste 6 Sudoeste 0 -- -- 90
2019-09-22 01:00:00 19.3 3 Noroeste 4 Sur 0 -- -- 89
2019-09-22 00:00:00 19.7 2 Sudoeste 6 Sudoeste 0 -- -- 85
2019-09-21 23:00:00 20.2 5 Sudoeste 9 Sudoeste 0 -- -- 84
2019-09-21 22:00:00 20.8 0 Calma 9 Sur 0 -- -- 78
2019-09-21 21:00:00 21.6 8 Sudoeste 21 Sur 0 -- -- 78
2019-09-21 20:00:00 23.1 13 Sur 26 Norte 0 -- -- 71
2019-09-21 19:00:00 24.3 18 Norte 34 Norte 0 -- -- 62
2019-09-21 18:00:00 26.3 21 Norte 32 Nordeste 0 -- -- 54
2019-09-21 17:00:00 27.2 18 Nordeste 35 Este 0 -- -- 57
2019-09-21 16:00:00 27.5 21 Nordeste 33 Nordeste 0 -- -- 57
2019-09-21 15:00:00 27.5 19 Nordeste 32 Nordeste 0 -- -- 57
2019-09-21 14:00:00 27.5 21 Nordeste 35 Nordeste 0 -- -- 56
2019-09-21 13:00:00 27.6 22 Nordeste 33 Nordeste 0 -- -- 55
2019-09-21 12:00:00 26.7 22 Nordeste 35 Nordeste 0 -- -- 56
2019-09-21 11:00:00 25.7 17 Nordeste 24 Nordeste 0 -- -- 56
2019-09-21 10:00:00 23.3 9 Este 16 Nordeste 0 -- -- 64
2019-09-21 09:00:00 20.1 3 Sur 6 Oeste 0 -- -- 76
2019-09-21 08:00:00 17.5 3 Oeste 6 Noroeste 0 -- -- 81
2019-09-21 07:00:00 17.6 0 Calma 5 Noroeste 0 -- -- 84
2019-09-21 06:00:00 18 3 Sur 6 Sur 0 -- -- 82
2019-09-21 05:00:00 18.1 6 Norte 21 Norte 0 -- -- 82
2019-09-21 04:00:00 19.1 19 Norte 31 Norte 0 -- -- 80
2019-09-21 03:00:00 19 16 Norte 31 Norte 0 -- -- 81
2019-09-21 02:00:00 19.2 18 Norte 28 Nordeste 0 -- -- 81
2019-09-21 01:00:00 19.6 21 Norte 32 Norte 0 -- -- 80
2019-09-21 00:00:00 20.3 14 Norte 22 Norte 0 -- -- 74
2019-09-20 23:00:00 21.5 12 Norte 26 Norte 0 -- -- 63
2019-09-20 22:00:00 20.8 21 Norte 34 Norte 0 -- -- 73
2019-09-20 21:00:00 21.1 21 Norte 33 Nordeste 0 -- -- 72
2019-09-20 20:00:00 22.3 25 Nordeste 34 Nordeste 0 -- -- 64
2019-09-20 19:00:00 25.3 20 Nordeste 38 Norte 0 -- -- 55
2019-09-20 18:00:00 27 25 Nordeste 43 Nordeste 0 -- -- 49
2019-09-20 17:00:00 27.3 32 Nordeste 48 Nordeste 0 -- -- 49
2019-09-20 16:00:00 27.1 30 Nordeste 46 Nordeste 0 -- -- 56
2019-09-20 15:00:00 26.6 30 Norte 50 Nordeste 0 -- -- 57
2019-09-20 14:00:00 26.6 31 Nordeste 44 Nordeste 0 -- -- 56
2019-09-20 13:00:00 25.4 32 Nordeste 45 Norte 0 -- -- 62
2019-09-20 12:00:00 25.4 26 Nordeste 44 Norte 0 -- -- 61
2019-09-20 11:00:00 24.2 22 Nordeste 37 Nordeste 0 -- -- 64
2019-09-20 10:00:00 22.8 17 Nordeste 26 Nordeste 0 -- -- 67
2019-09-20 09:00:00 20.6 9 Norte 22 Nordeste 0 -- -- 73
2019-09-20 08:00:00 17.9 3 Norte 15 Nordeste 0 -- -- 79
2019-09-20 07:00:00 19.4 8 Sudoeste 56 Norte 0 -- -- 76
2019-09-20 06:00:00 19.3 35 Norte 46 Norte 0 -- -- 77
2019-09-20 05:00:00 18.2 5 Noroeste 15 Norte 0 -- -- 78
2019-09-20 04:00:00 19.2 6 Este 16 Norte 0 -- -- 66
2019-09-20 03:00:00 20.6 13 Norte 58 Norte 0 -- -- 61
2019-09-20 02:00:00 20.5 42 Norte 54 Norte 0 -- -- 66
2019-09-20 01:00:00 22.1 26 Norte 44 Norte 0 -- -- 48
2019-09-20 00:00:00 21.8 28 Norte 39 Norte 0 -- -- 49
2019-09-19 23:00:00 21.9 22 Norte 46 Norte 0 -- -- 51
2019-09-19 22:00:00 20.9 30 Norte 48 Norte 0 -- -- 69
2019-09-19 21:00:00 22.9 27 Norte 41 Norte 0 -- -- 48
2019-09-19 20:00:00 23 24 Norte 45 Norte 0 -- -- 60
2019-09-19 19:00:00 23.2 31 Norte 50 Nordeste 0 -- -- 66
2019-09-19 18:00:00 25.1 31 Norte 49 Nordeste 0 -- -- 61
2019-09-19 17:00:00 26.1 36 Norte 53 Nordeste 0 -- -- 58
2019-09-19 16:00:00 26.2 40 Nordeste 59 Nordeste 0 -- -- 57
2019-09-19 15:00:00 27 36 Nordeste 50 Nordeste 0 -- -- 56
2019-09-19 14:00:00 27.5 33 Nordeste 55 Nordeste 0 -- -- 54
2019-09-19 13:00:00 27.2 33 Nordeste 50 Nordeste 0 -- -- 51
2019-09-19 12:00:00 25.4 34 Nordeste 54 Nordeste 0 -- -- 56
2019-09-19 11:00:00 23.5 36 Norte 52 Nordeste 0 -- -- 61
2019-09-19 10:00:00 22.2 33 Norte 51 Norte 0 -- -- 69
2019-09-19 09:00:00 20.8 28 Norte 45 Nordeste 0 -- -- 71
2019-09-19 08:00:00 19.2 31 Norte 46 Norte 0 -- -- 75
2019-09-19 07:00:00 19.2 27 Norte 47 Norte 0 -- -- 75
2019-09-19 06:00:00 19 25 Norte 42 Norte 0 -- -- 76
2019-09-19 05:00:00 19.1 27 Norte 46 Norte 0 -- -- 76
2019-09-19 04:00:00 19 27 Norte 46 Norte 0 -- -- 79
2019-09-19 03:00:00 19 30 Norte 48 Norte 0 -- -- 81
2019-09-19 02:00:00 19.2 25 Norte 39 Norte 0 -- -- 81
2019-09-19 01:00:00 20 21 Nordeste 40 Norte 0 -- -- 71
2019-09-19 00:00:00 19.7 25 Norte 41 Norte 0 -- -- 79
2019-09-18 23:00:00 19.9 23 Nordeste 39 Nordeste 0 -- -- 79
2019-09-18 22:00:00 20.6 22 Norte 39 Norte 0 -- -- 73
2019-09-18 21:00:00 20.7 23 Norte 39 Nordeste 0 -- -- 74
2019-09-18 20:00:00 21.1 27 Nordeste 43 Norte 0 -- -- 76
2019-09-18 19:00:00 22.5 28 Norte 41 Norte 0 -- -- 70
2019-09-18 18:00:00 24 28 Norte 48 Nordeste 0 -- -- 66
2019-09-18 17:00:00 25 32 Nordeste 47 Norte 0 -- -- 63
2019-09-18 16:00:00 25.9 30 Nordeste 50 Nordeste 0 -- -- 60
2019-09-18 15:00:00 26.6 32 Nordeste 49 Nordeste 0 -- -- 57
2019-09-18 14:00:00 27 31 Nordeste 48 Nordeste 0 -- -- 55
2019-09-18 13:00:00 26 32 Nordeste 48 Norte 0 -- -- 58
2019-09-18 12:00:00 25.2 30 Nordeste 47 Nordeste 0 -- -- 61
2019-09-18 11:00:00 24.5 32 Nordeste 48 Nordeste 0 -- -- 62
2019-09-18 10:00:00 24.1 23 Nordeste 41 Norte 0 -- -- 59
2019-09-18 09:00:00 20.1 29 Norte 48 Nordeste 0 -- -- 74
2019-09-18 08:00:00 18.9 24 Norte 40 Norte 0 -- -- 79
2019-09-18 07:00:00 19.1 24 Norte 47 Nordeste 0 -- -- 79
2019-09-18 06:00:00 19 26 Norte 48 Nordeste 0 -- -- 81
2019-09-18 05:00:00 19.1 25 Norte 41 Norte 0 -- -- 80
2019-09-18 04:00:00 18.6 5 Sudoeste 12 Nordeste 0 -- -- 83
2019-09-18 03:00:00 19.3 16 Norte 37 Norte 0 -- -- 78
2019-09-18 02:00:00 19.5 18 Norte 39 Norte 0 -- -- 81
2019-09-18 01:00:00 19.6 24 Norte 41 Nordeste 0 -- -- 81
2019-09-18 00:00:00 19.8 24 Norte 39 Norte 0 -- -- 81
2019-09-17 23:00:00 20 25 Norte 42 Norte 0 -- -- 80
2019-09-17 22:00:00 20.2 23 Norte 35 Nordeste 0 -- -- 80
2019-09-17 21:00:00 20.6 22 Nordeste 35 Nordeste 0 -- -- 80
2019-09-17 20:00:00 21.2 22 Nordeste 39 Nordeste 0 -- -- 77